sensor_id;sensor_type;location;lat;lon;timestamp;P1;durP1;ratioP1;P2;durP2;ratioP2
53879;SDS011;39791;53.184;5.486;2023-02-28T00:00:45;11.23;;;3.10;;
53879;SDS011;39791;53.184;5.486;2023-02-28T00:03:11;19.63;;;3.08;;
53879;SDS011;39791;53.184;5.486;2023-02-28T00:05:36;17.98;;;2.90;;
53879;SDS011;39791;53.184;5.486;2023-02-28T00:08:02;16.83;;;3.17;;
53879;SDS011;39791;53.184;5.486;2023-02-28T00:10:28;14.52;;;3.00;;
53879;SDS011;39791;53.184;5.486;2023-02-28T00:12:58;13.07;;;3.17;;
53879;SDS011;39791;53.184;5.486;2023-02-28T00:15:26;14.82;;;3.55;;
53879;SDS011;39791;53.184;5.486;2023-02-28T00:17:52;10.20;;;3.30;;
53879;SDS011;39791;53.184;5.486;2023-02-28T00:20:17;13.88;;;3.30;;
53879;SDS011;39791;53.184;5.486;2023-02-28T00:22:44;14.48;;;3.67;;
53879;SDS011;39791;53.184;5.486;2023-02-28T00:25:13;9.00;;;2.90;;
53879;SDS011;39791;53.184;5.486;2023-02-28T00:27:41;9.23;;;2.72;;
53879;SDS011;39791;53.184;5.486;2023-02-28T00:30:09;12.85;;;2.63;;
53879;SDS011;39791;53.184;5.486;2023-02-28T00:32:37;12.63;;;2.83;;
53879;SDS011;39791;53.184;5.486;2023-02-28T00:35:02;10.25;;;2.80;;
53879;SDS011;39791;53.184;5.486;2023-02-28T00:37:28;18.35;;;3.17;;
53879;SDS011;39791;53.184;5.486;2023-02-28T00:39:54;13.18;;;2.83;;
53879;SDS011;39791;53.184;5.486;2023-02-28T00:42:19;9.82;;;2.47;;
53879;SDS011;39791;53.184;5.486;2023-02-28T00:44:45;9.38;;;3.47;;
53879;SDS011;39791;53.184;5.486;2023-02-28T00:47:11;8.57;;;3.15;;
53879;SDS011;39791;53.184;5.486;2023-02-28T00:49:36;17.45;;;3.20;;
53879;SDS011;39791;53.184;5.486;2023-02-28T00:52:02;12.30;;;3.47;;
53879;SDS011;39791;53.184;5.486;2023-02-28T00:54:28;10.75;;;3.10;;
53879;SDS011;39791;53.184;5.486;2023-02-28T00:56:53;17.80;;;3.03;;
53879;SDS011;39791;53.184;5.486;2023-02-28T00:59:19;15.88;;;2.97;;
53879;SDS011;39791;53.184;5.486;2023-02-28T01:01:45;12.52;;;2.90;;
53879;SDS011;39791;53.184;5.486;2023-02-28T01:04:11;16.55;;;3.00;;
53879;SDS011;39791;53.184;5.486;2023-02-28T01:06:37;12.18;;;3.40;;
53879;SDS011;39791;53.184;5.486;2023-02-28T01:09:04;10.27;;;2.55;;
53879;SDS011;39791;53.184;5.486;2023-02-28T01:11:31;14.68;;;2.80;;
53879;SDS011;39791;53.184;5.486;2023-02-28T01:13:57;11.80;;;3.13;;
53879;SDS011;39791;53.184;5.486;2023-02-28T01:16:23;12.50;;;2.50;;
53879;SDS011;39791;53.184;5.486;2023-02-28T01:18:48;20.33;;;2.65;;
53879;SDS011;39791;53.184;5.486;2023-02-28T01:21:15;20.75;;;3.38;;
53879;SDS011;39791;53.184;5.486;2023-02-28T01:23:43;13.63;;;2.95;;
53879;SDS011;39791;53.184;5.486;2023-02-28T01:26:11;15.88;;;2.92;;
53879;SDS011;39791;53.184;5.486;2023-02-28T01:28:38;14.55;;;2.88;;
53879;SDS011;39791;53.184;5.486;2023-02-28T01:31:04;12.57;;;3.00;;
53879;SDS011;39791;53.184;5.486;2023-02-28T01:33:30;16.00;;;2.75;;
53879;SDS011;39791;53.184;5.486;2023-02-28T01:36:00;12.98;;;2.25;;
53879;SDS011;39791;53.184;5.486;2023-02-28T01:38:27;12.05;;;2.65;;
53879;SDS011;39791;53.184;5.486;2023-02-28T01:40:53;12.15;;;2.38;;
53879;SDS011;39791;53.184;5.486;2023-02-28T01:46:18;10.75;;;2.38;;
53879;SDS011;39791;53.184;5.486;2023-02-28T01:48:48;12.80;;;2.28;;
53879;SDS011;39791;53.184;5.486;2023-02-28T01:52:03;11.02;;;2.30;;
53879;SDS011;39791;53.184;5.486;2023-02-28T01:54:23;11.15;;;2.13;;
53879;SDS011;39791;53.184;5.486;2023-02-28T01:56:53;11.57;;;2.60;;
53879;SDS011;39791;53.184;5.486;2023-02-28T01:59:37;9.30;;;2.22;;
53879;SDS011;39791;53.184;5.486;2023-02-28T02:02:17;13.77;;;2.38;;
53879;SDS011;39791;53.184;5.486;2023-02-28T02:04:53;8.93;;;2.50;;
53879;SDS011;39791;53.184;5.486;2023-02-28T02:07:19;12.52;;;2.42;;
53879;SDS011;39791;53.184;5.486;2023-02-28T02:09:46;17.15;;;3.00;;
53879;SDS011;39791;53.184;5.486;2023-02-28T02:12:19;17.00;;;2.80;;
53879;SDS011;39791;53.184;5.486;2023-02-28T02:14:58;11.88;;;2.35;;
53879;SDS011;39791;53.184;5.486;2023-02-28T02:32:17;13.35;;;3.45;;
53879;SDS011;39791;53.184;5.486;2023-02-28T02:38:03;6.72;;;2.60;;
53879;SDS011;39791;53.184;5.486;2023-02-28T02:40:36;11.07;;;2.53;;
53879;SDS011;39791;53.184;5.486;2023-02-28T02:46:14;12.02;;;2.50;;
53879;SDS011;39791;53.184;5.486;2023-02-28T02:48:51;10.63;;;2.13;;
53879;SDS011;39791;53.184;5.486;2023-02-28T02:51:21;14.82;;;2.80;;
53879;SDS011;39791;53.184;5.486;2023-02-28T02:53:56;9.18;;;2.40;;
53879;SDS011;39791;53.184;5.486;2023-02-28T02:56:35;7.10;;;2.40;;
53879;SDS011;39791;53.184;5.486;2023-02-28T02:59:06;11.27;;;2.47;;
53879;SDS011;39791;53.184;5.486;2023-02-28T03:01:34;10.90;;;3.15;;
53879;SDS011;39791;53.184;5.486;2023-02-28T03:04:09;13.80;;;3.20;;
53879;SDS011;39791;53.184;5.486;2023-02-28T03:06:41;7.88;;;3.45;;
53879;SDS011;39791;53.184;5.486;2023-02-28T03:09:06;9.10;;;3.13;;
53879;SDS011;39791;53.184;5.486;2023-02-28T03:11:32;10.85;;;4.18;;
53879;SDS011;39791;53.184;5.486;2023-02-28T03:29:37;11.45;;;3.03;;
53879;SDS011;39791;53.184;5.486;2023-02-28T03:32:12;8.60;;;2.30;;
53879;SDS011;39791;53.184;5.486;2023-02-28T03:34:48;11.77;;;2.50;;
53879;SDS011;39791;53.184;5.486;2023-02-28T03:37:23;6.70;;;2.13;;
53879;SDS011;39791;53.184;5.486;2023-02-28T03:39:55;9.77;;;2.42;;
53879;SDS011;39791;53.184;5.486;2023-02-28T03:42:25;14.25;;;2.50;;
53879;SDS011;39791;53.184;5.486;2023-02-28T03:44:57;5.75;;;2.28;;
53879;SDS011;39791;53.184;5.486;2023-02-28T03:48:03;11.52;;;2.33;;
53879;SDS011;39791;53.184;5.486;2023-02-28T03:50:41;6.00;;;1.90;;
53879;SDS011;39791;53.184;5.486;2023-02-28T03:53:16;10.77;;;1.98;;
53879;SDS011;39791;53.184;5.486;2023-02-28T03:55:48;5.88;;;1.85;;
53879;SDS011;39791;53.184;5.486;2023-02-28T03:58:40;10.43;;;2.05;;
53879;SDS011;39791;53.184;5.486;2023-02-28T04:01:19;11.63;;;1.85;;
53879;SDS011;39791;53.184;5.486;2023-02-28T04:03:55;13.40;;;2.10;;
53879;SDS011;39791;53.184;5.486;2023-02-28T04:06:21;11.77;;;1.92;;
53879;SDS011;39791;53.184;5.486;2023-02-28T04:08:48;9.82;;;2.15;;
53879;SDS011;39791;53.184;5.486;2023-02-28T04:13:43;10.30;;;1.95;;
53879;SDS011;39791;53.184;5.486;2023-02-28T04:16:09;15.13;;;2.00;;
53879;SDS011;39791;53.184;5.486;2023-02-28T04:18:37;10.82;;;2.30;;
53879;SDS011;39791;53.184;5.486;2023-02-28T04:21:03;10.80;;;2.20;;
53879;SDS011;39791;53.184;5.486;2023-02-28T04:23:30;9.45;;;2.22;;
53879;SDS011;39791;53.184;5.486;2023-02-28T04:25:56;11.82;;;2.03;;
53879;SDS011;39791;53.184;5.486;2023-02-28T04:28:21;12.65;;;2.00;;
53879;SDS011;39791;53.184;5.486;2023-02-28T04:30:47;9.15;;;1.77;;
53879;SDS011;39791;53.184;5.486;2023-02-28T04:33:18;10.50;;;2.53;;
53879;SDS011;39791;53.184;5.486;2023-02-28T04:35:44;9.52;;;1.95;;
53879;SDS011;39791;53.184;5.486;2023-02-28T04:38:09;10.68;;;2.10;;
53879;SDS011;39791;53.184;5.486;2023-02-28T04:40:35;12.23;;;2.63;;
53879;SDS011;39791;53.184;5.486;2023-02-28T04:43:00;10.35;;;2.38;;
53879;SDS011;39791;53.184;5.486;2023-02-28T04:45:26;8.90;;;1.90;;
53879;SDS011;39791;53.184;5.486;2023-02-28T04:47:55;10.65;;;2.10;;
53879;SDS011;39791;53.184;5.486;2023-02-28T04:50:20;11.95;;;2.30;;
53879;SDS011;39791;53.184;5.486;2023-02-28T04:52:46;13.98;;;2.20;;
53879;SDS011;39791;53.184;5.486;2023-02-28T04:55:11;14.05;;;2.53;;
53879;SDS011;39791;53.184;5.486;2023-02-28T04:57:37;8.30;;;1.70;;
53879;SDS011;39791;53.184;5.486;2023-02-28T05:00:02;12.60;;;2.05;;
53879;SDS011;39791;53.184;5.486;2023-02-28T05:02:34;10.55;;;2.10;;
53879;SDS011;39791;53.184;5.486;2023-02-28T05:05:00;15.45;;;2.40;;
53879;SDS011;39791;53.184;5.486;2023-02-28T05:07:25;12.43;;;2.17;;
53879;SDS011;39791;53.184;5.486;2023-02-28T05:09:51;7.78;;;1.90;;
53879;SDS011;39791;53.184;5.486;2023-02-28T05:12:18;11.45;;;2.22;;
53879;SDS011;39791;53.184;5.486;2023-02-28T05:14:43;16.92;;;2.10;;
53879;SDS011;39791;53.184;5.486;2023-02-28T05:17:09;15.85;;;2.35;;
53879;SDS011;39791;53.184;5.486;2023-02-28T05:19:35;11.88;;;2.22;;
53879;SDS011;39791;53.184;5.486;2023-02-28T05:22:00;13.10;;;2.28;;
53879;SDS011;39791;53.184;5.486;2023-02-28T05:24:27;16.23;;;2.45;;
53879;SDS011;39791;53.184;5.486;2023-02-28T05:26:53;12.85;;;2.25;;
53879;SDS011;39791;53.184;5.486;2023-02-28T05:29:19;11.40;;;2.28;;
53879;SDS011;39791;53.184;5.486;2023-02-28T05:31:45;13.80;;;2.42;;
53879;SDS011;39791;53.184;5.486;2023-02-28T05:34:11;13.63;;;2.03;;
53879;SDS011;39791;53.184;5.486;2023-02-28T05:36:37;17.38;;;2.20;;
53879;SDS011;39791;53.184;5.486;2023-02-28T05:39:05;6.50;;;1.80;;
53879;SDS011;39791;53.184;5.486;2023-02-28T05:41:32;7.18;;;1.88;;
53879;SDS011;39791;53.184;5.486;2023-02-28T05:43:59;13.05;;;2.03;;
53879;SDS011;39791;53.184;5.486;2023-02-28T05:46:25;13.88;;;2.15;;
53879;SDS011;39791;53.184;5.486;2023-02-28T05:48:50;10.88;;;2.10;;
53879;SDS011;39791;53.184;5.486;2023-02-28T05:51:16;14.98;;;2.47;;
53879;SDS011;39791;53.184;5.486;2023-02-28T05:53:43;13.50;;;2.55;;
53879;SDS011;39791;53.184;5.486;2023-02-28T05:56:09;9.13;;;1.85;;
53879;SDS011;39791;53.184;5.486;2023-02-28T05:58:34;12.55;;;2.22;;
53879;SDS011;39791;53.184;5.486;2023-02-28T06:01:00;9.63;;;1.85;;
53879;SDS011;39791;53.184;5.486;2023-02-28T06:03:44;10.65;;;2.00;;
53879;SDS011;39791;53.184;5.486;2023-02-28T06:06:09;6.03;;;1.85;;
53879;SDS011;39791;53.184;5.486;2023-02-28T06:08:35;9.40;;;1.77;;
53879;SDS011;39791;53.184;5.486;2023-02-28T06:11:02;16.27;;;2.15;;
53879;SDS011;39791;53.184;5.486;2023-02-28T06:13:28;11.93;;;2.28;;
53879;SDS011;39791;53.184;5.486;2023-02-28T06:15:54;14.02;;;2.17;;
53879;SDS011;39791;53.184;5.486;2023-02-28T06:18:20;14.63;;;2.10;;
53879;SDS011;39791;53.184;5.486;2023-02-28T06:20:52;10.13;;;2.03;;
53879;SDS011;39791;53.184;5.486;2023-02-28T06:23:21;11.68;;;2.17;;
53879;SDS011;39791;53.184;5.486;2023-02-28T06:25:47;12.85;;;1.70;;
53879;SDS011;39791;53.184;5.486;2023-02-28T06:28:12;9.73;;;2.45;;
53879;SDS011;39791;53.184;5.486;2023-02-28T06:30:38;9.65;;;2.03;;
53879;SDS011;39791;53.184;5.486;2023-02-28T06:33:04;18.67;;;2.40;;
53879;SDS011;39791;53.184;5.486;2023-02-28T06:35:30;16.40;;;2.90;;
53879;SDS011;39791;53.184;5.486;2023-02-28T06:37:56;12.32;;;2.45;;
53879;SDS011;39791;53.184;5.486;2023-02-28T06:40:21;18.52;;;2.75;;
53879;SDS011;39791;53.184;5.486;2023-02-28T06:42:47;16.65;;;3.22;;
53879;SDS011;39791;53.184;5.486;2023-02-28T06:45:13;16.30;;;5.53;;
53879;SDS011;39791;53.184;5.486;2023-02-28T06:47:39;21.92;;;9.02;;
53879;SDS011;39791;53.184;5.486;2023-02-28T06:50:06;23.15;;;12.80;;
53879;SDS011;39791;53.184;5.486;2023-02-28T06:52:32;30.77;;;13.38;;
53879;SDS011;39791;53.184;5.486;2023-02-28T06:55:01;19.30;;;8.07;;
53879;SDS011;39791;53.184;5.486;2023-02-28T06:57:28;20.52;;;5.13;;
53879;SDS011;39791;53.184;5.486;2023-02-28T07:00:00;17.85;;;3.90;;
53879;SDS011;39791;53.184;5.486;2023-02-28T07:02:29;16.00;;;3.25;;
53879;SDS011;39791;53.184;5.486;2023-02-28T07:04:56;17.83;;;3.05;;
53879;SDS011;39791;53.184;5.486;2023-02-28T07:07:22;17.25;;;3.55;;
53879;SDS011;39791;53.184;5.486;2023-02-28T07:09:47;17.02;;;2.88;;
53879;SDS011;39791;53.184;5.486;2023-02-28T07:12:13;15.00;;;2.65;;
53879;SDS011;39791;53.184;5.486;2023-02-28T07:14:39;18.92;;;2.83;;
53879;SDS011;39791;53.184;5.486;2023-02-28T07:17:06;15.18;;;3.00;;
53879;SDS011;39791;53.184;5.486;2023-02-28T07:19:32;14.93;;;2.72;;
53879;SDS011;39791;53.184;5.486;2023-02-28T07:21:58;12.75;;;2.88;;
53879;SDS011;39791;53.184;5.486;2023-02-28T07:24:24;10.63;;;4.20;;
53879;SDS011;39791;53.184;5.486;2023-02-28T07:26:53;9.48;;;5.47;;
53879;SDS011;39791;53.184;5.486;2023-02-28T07:29:18;10.05;;;6.35;;
53879;SDS011;39791;53.184;5.486;2023-02-28T07:31:44;8.48;;;6.45;;
53879;SDS011;39791;53.184;5.486;2023-02-28T07:34:11;8.45;;;6.20;;
53879;SDS011;39791;53.184;5.486;2023-02-28T07:36:37;11.25;;;6.97;;
53879;SDS011;39791;53.184;5.486;2023-02-28T07:39:03;7.22;;;5.55;;
53879;SDS011;39791;53.184;5.486;2023-02-28T07:41:29;7.22;;;5.57;;
53879;SDS011;39791;53.184;5.486;2023-02-28T07:43:58;9.75;;;6.57;;
53879;SDS011;39791;53.184;5.486;2023-02-28T07:46:25;8.18;;;6.35;;
53879;SDS011;39791;53.184;5.486;2023-02-28T07:48:51;8.98;;;6.50;;
53879;SDS011;39791;53.184;5.486;2023-02-28T07:51:17;9.60;;;6.70;;
53879;SDS011;39791;53.184;5.486;2023-02-28T07:53:43;11.40;;;6.95;;
53879;SDS011;39791;53.184;5.486;2023-02-28T07:56:12;13.75;;;8.38;;
53879;SDS011;39791;53.184;5.486;2023-02-28T07:58:37;9.32;;;7.90;;
53879;SDS011;39791;53.184;5.486;2023-02-28T08:01:07;12.40;;;8.98;;
53879;SDS011;39791;53.184;5.486;2023-02-28T08:03:33;14.10;;;9.93;;
53879;SDS011;39791;53.184;5.486;2023-02-28T08:06:00;16.08;;;10.38;;
53879;SDS011;39791;53.184;5.486;2023-02-28T08:08:27;15.63;;;9.77;;
53879;SDS011;39791;53.184;5.486;2023-02-28T08:10:57;11.52;;;8.15;;
53879;SDS011;39791;53.184;5.486;2023-02-28T08:13:28;10.60;;;8.30;;
53879;SDS011;39791;53.184;5.486;2023-02-28T08:15:55;11.93;;;9.10;;
53879;SDS011;39791;53.184;5.486;2023-02-28T08:18:21;12.38;;;8.73;;
53879;SDS011;39791;53.184;5.486;2023-02-28T08:20:47;13.30;;;8.88;;
53879;SDS011;39791;53.184;5.486;2023-02-28T08:23:13;12.07;;;9.25;;
53879;SDS011;39791;53.184;5.486;2023-02-28T08:25:39;12.68;;;8.75;;
53879;SDS011;39791;53.184;5.486;2023-02-28T08:28:05;13.88;;;8.73;;
53879;SDS011;39791;53.184;5.486;2023-02-28T08:30:31;10.18;;;8.77;;
53879;SDS011;39791;53.184;5.486;2023-02-28T08:32:56;11.15;;;9.23;;
53879;SDS011;39791;53.184;5.486;2023-02-28T08:35:22;12.20;;;8.30;;
53879;SDS011;39791;53.184;5.486;2023-02-28T08:37:48;11.80;;;9.50;;
53879;SDS011;39791;53.184;5.486;2023-02-28T08:40:14;10.25;;;8.65;;
53879;SDS011;39791;53.184;5.486;2023-02-28T08:42:44;10.70;;;8.82;;
53879;SDS011;39791;53.184;5.486;2023-02-28T08:45:10;9.30;;;7.93;;
53879;SDS011;39791;53.184;5.486;2023-02-28T08:47:36;10.57;;;8.18;;
53879;SDS011;39791;53.184;5.486;2023-02-28T08:50:02;12.20;;;7.95;;
53879;SDS011;39791;53.184;5.486;2023-02-28T08:52:29;8.65;;;6.72;;
53879;SDS011;39791;53.184;5.486;2023-02-28T08:54:54;7.25;;;5.97;;
53879;SDS011;39791;53.184;5.486;2023-02-28T08:57:20;8.15;;;6.97;;
53879;SDS011;39791;53.184;5.486;2023-02-28T08:59:45;7.80;;;7.00;;
53879;SDS011;39791;53.184;5.486;2023-02-28T09:02:14;8.77;;;7.60;;
53879;SDS011;39791;53.184;5.486;2023-02-28T09:04:40;10.00;;;8.55;;
53879;SDS011;39791;53.184;5.486;2023-02-28T09:07:06;13.15;;;9.52;;
53879;SDS011;39791;53.184;5.486;2023-02-28T09:09:32;15.20;;;10.05;;
53879;SDS011;39791;53.184;5.486;2023-02-28T09:11:58;14.20;;;10.80;;
53879;SDS011;39791;53.184;5.486;2023-02-28T09:14:23;14.27;;;11.13;;
53879;SDS011;39791;53.184;5.486;2023-02-28T09:16:49;18.00;;;12.80;;
53879;SDS011;39791;53.184;5.486;2023-02-28T09:19:15;18.92;;;13.32;;
53879;SDS011;39791;53.184;5.486;2023-02-28T09:21:40;23.23;;;14.27;;
53879;SDS011;39791;53.184;5.486;2023-02-28T09:24:06;19.33;;;15.02;;
53879;SDS011;39791;53.184;5.486;2023-02-28T09:26:32;17.75;;;12.82;;
53879;SDS011;39791;53.184;5.486;2023-02-28T09:28:59;16.10;;;12.27;;
53879;SDS011;39791;53.184;5.486;2023-02-28T09:31:25;16.35;;;12.90;;
53879;SDS011;39791;53.184;5.486;2023-02-28T09:33:54;20.27;;;13.90;;
53879;SDS011;39791;53.184;5.486;2023-02-28T09:36:21;16.80;;;12.75;;
53879;SDS011;39791;53.184;5.486;2023-02-28T09:38:48;16.40;;;13.38;;
53879;SDS011;39791;53.184;5.486;2023-02-28T09:41:20;19.35;;;14.45;;
53879;SDS011;39791;53.184;5.486;2023-02-28T09:43:49;19.30;;;14.77;;
53879;SDS011;39791;53.184;5.486;2023-02-28T09:49:06;23.20;;;15.48;;
53879;SDS011;39791;53.184;5.486;2023-02-28T09:51:43;17.83;;;14.43;;
53879;SDS011;39791;53.184;5.486;2023-02-28T09:54:17;21.25;;;16.33;;
53879;SDS011;39791;53.184;5.486;2023-02-28T10:02:17;14.38;;;11.80;;
53879;SDS011;39791;53.184;5.486;2023-02-28T10:04:51;12.35;;;10.68;;
53879;SDS011;39791;53.184;5.486;2023-02-28T10:07:41;12.43;;;10.90;;
53879;SDS011;39791;53.184;5.486;2023-02-28T10:15:48;12.20;;;10.30;;
53879;SDS011;39791;53.184;5.486;2023-02-28T10:18:26;10.75;;;9.63;;
53879;SDS011;39791;53.184;5.486;2023-02-28T10:20:56;11.75;;;9.45;;
53879;SDS011;39791;53.184;5.486;2023-02-28T10:23:28;10.85;;;9.75;;
53879;SDS011;39791;53.184;5.486;2023-02-28T10:26:00;11.75;;;8.13;;
53879;SDS011;39791;53.184;5.486;2023-02-28T10:28:36;9.68;;;6.68;;
53879;SDS011;39791;53.184;5.486;2023-02-28T10:31:02;10.65;;;7.97;;
53879;SDS011;39791;53.184;5.486;2023-02-28T10:33:29;9.40;;;6.85;;
53879;SDS011;39791;53.184;5.486;2023-02-28T10:35:56;7.63;;;6.82;;
53879;SDS011;39791;53.184;5.486;2023-02-28T10:38:24;8.80;;;7.45;;
53879;SDS011;39791;53.184;5.486;2023-02-28T10:41:01;9.88;;;7.55;;
53879;SDS011;39791;53.184;5.486;2023-02-28T10:43:37;10.30;;;8.13;;
53879;SDS011;39791;53.184;5.486;2023-02-28T10:48:36;11.20;;;8.88;;
53879;SDS011;39791;53.184;5.486;2023-02-28T10:51:10;10.35;;;8.45;;
53879;SDS011;39791;53.184;5.486;2023-02-28T10:53:52;9.45;;;8.25;;
53879;SDS011;39791;53.184;5.486;2023-02-28T10:56:20;11.32;;;8.25;;
53879;SDS011;39791;53.184;5.486;2023-02-28T11:03:49;10.43;;;7.97;;
53879;SDS011;39791;53.184;5.486;2023-02-28T11:06:19;14.68;;;9.15;;
53879;SDS011;39791;53.184;5.486;2023-02-28T11:08:52;10.18;;;8.45;;
53879;SDS011;39791;53.184;5.486;2023-02-28T11:11:19;11.55;;;8.07;;
53879;SDS011;39791;53.184;5.486;2023-02-28T11:13:48;11.10;;;7.13;;
53879;SDS011;39791;53.184;5.486;2023-02-28T11:16:17;8.73;;;6.55;;
53879;SDS011;39791;53.184;5.486;2023-02-28T11:18:50;9.38;;;7.15;;
53879;SDS011;39791;53.184;5.486;2023-02-28T11:21:22;9.43;;;6.50;;
53879;SDS011;39791;53.184;5.486;2023-02-28T11:23:56;7.18;;;5.63;;
53879;SDS011;39791;53.184;5.486;2023-02-28T11:29:24;7.85;;;4.43;;
53879;SDS011;39791;53.184;5.486;2023-02-28T11:34:30;5.85;;;4.28;;
53879;SDS011;39791;53.184;5.486;2023-02-28T11:36:57;7.30;;;3.90;;
53879;SDS011;39791;53.184;5.486;2023-02-28T11:39:26;6.53;;;3.83;;
53879;SDS011;39791;53.184;5.486;2023-02-28T11:53:19;5.45;;;3.83;;
53879;SDS011;39791;53.184;5.486;2023-02-28T11:55:54;6.00;;;4.05;;
53879;SDS011;39791;53.184;5.486;2023-02-28T11:58:36;5.55;;;4.15;;
53879;SDS011;39791;53.184;5.486;2023-02-28T12:01:26;9.15;;;4.85;;
53879;SDS011;39791;53.184;5.486;2023-02-28T12:04:24;6.57;;;4.40;;
53879;SDS011;39791;53.184;5.486;2023-02-28T12:07:13;6.75;;;4.05;;
53879;SDS011;39791;53.184;5.486;2023-02-28T12:21:04;8.45;;;4.25;;
53879;SDS011;39791;53.184;5.486;2023-02-28T12:24:07;5.72;;;3.60;;
53879;SDS011;39791;53.184;5.486;2023-02-28T12:29:23;9.27;;;4.47;;
53879;SDS011;39791;53.184;5.486;2023-02-28T12:34:39;7.82;;;4.97;;
53879;SDS011;39791;53.184;5.486;2023-02-28T12:40:11;5.60;;;4.97;;
53879;SDS011;39791;53.184;5.486;2023-02-28T12:42:45;6.35;;;5.07;;
53879;SDS011;39791;53.184;5.486;2023-02-28T12:45:20;10.57;;;5.53;;
53879;SDS011;39791;53.184;5.486;2023-02-28T12:48:02;8.18;;;5.07;;
53879;SDS011;39791;53.184;5.486;2023-02-28T12:50:31;9.18;;;5.15;;
53879;SDS011;39791;53.184;5.486;2023-02-28T12:53:06;6.57;;;4.68;;
53879;SDS011;39791;53.184;5.486;2023-02-28T13:00:49;9.82;;;4.15;;
53879;SDS011;39791;53.184;5.486;2023-02-28T13:06:13;6.32;;;4.32;;
53879;SDS011;39791;53.184;5.486;2023-02-28T13:08:50;6.85;;;4.00;;
53879;SDS011;39791;53.184;5.486;2023-02-28T13:14:05;6.80;;;4.18;;
53879;SDS011;39791;53.184;5.486;2023-02-28T13:17:17;6.00;;;4.13;;
53879;SDS011;39791;53.184;5.486;2023-02-28T13:19:46;7.18;;;4.30;;
53879;SDS011;39791;53.184;5.486;2023-02-28T13:24:51;5.97;;;4.05;;
53879;SDS011;39791;53.184;5.486;2023-02-28T13:29:51;7.72;;;4.15;;
53879;SDS011;39791;53.184;5.486;2023-02-28T13:32:19;8.75;;;4.55;;
53879;SDS011;39791;53.184;5.486;2023-02-28T13:39:54;5.88;;;3.95;;
53879;SDS011;39791;53.184;5.486;2023-02-28T13:47:31;8.57;;;4.03;;
53879;SDS011;39791;53.184;5.486;2023-02-28T14:01:03;7.38;;;3.95;;
53879;SDS011;39791;53.184;5.486;2023-02-28T14:06:33;6.25;;;4.07;;
53879;SDS011;39791;53.184;5.486;2023-02-28T14:13:59;8.40;;;5.60;;
53879;SDS011;39791;53.184;5.486;2023-02-28T14:16:27;10.07;;;5.40;;
53879;SDS011;39791;53.184;5.486;2023-02-28T14:19:09;6.65;;;4.97;;
53879;SDS011;39791;53.184;5.486;2023-02-28T14:21:52;10.13;;;4.80;;
53879;SDS011;39791;53.184;5.486;2023-02-28T14:24:49;14.02;;;5.72;;
53879;SDS011;39791;53.184;5.486;2023-02-28T14:27:52;10.07;;;4.72;;
53879;SDS011;39791;53.184;5.486;2023-02-28T14:38:47;7.30;;;4.18;;
53879;SDS011;39791;53.184;5.486;2023-02-28T14:41:22;9.90;;;5.13;;
53879;SDS011;39791;53.184;5.486;2023-02-28T14:43:56;8.35;;;5.10;;
53879;SDS011;39791;53.184;5.486;2023-02-28T14:46:25;8.88;;;5.50;;
53879;SDS011;39791;53.184;5.486;2023-02-28T14:48:55;7.85;;;5.40;;
53879;SDS011;39791;53.184;5.486;2023-02-28T14:51:21;7.65;;;5.10;;
53879;SDS011;39791;53.184;5.486;2023-02-28T14:53:52;13.70;;;4.85;;
53879;SDS011;39791;53.184;5.486;2023-02-28T14:56:29;9.05;;;4.80;;
53879;SDS011;39791;53.184;5.486;2023-02-28T14:59:03;7.60;;;4.88;;
53879;SDS011;39791;53.184;5.486;2023-02-28T15:01:30;7.00;;;4.93;;
53879;SDS011;39791;53.184;5.486;2023-02-28T15:04:02;8.60;;;4.50;;
53879;SDS011;39791;53.184;5.486;2023-02-28T15:06:32;6.68;;;4.10;;
53879;SDS011;39791;53.184;5.486;2023-02-28T15:09:08;7.85;;;4.45;;
53879;SDS011;39791;53.184;5.486;2023-02-28T15:11:36;5.53;;;4.10;;
53879;SDS011;39791;53.184;5.486;2023-02-28T15:14:03;7.47;;;4.40;;
53879;SDS011;39791;53.184;5.486;2023-02-28T15:16:34;7.75;;;4.10;;
53879;SDS011;39791;53.184;5.486;2023-02-28T15:19:08;6.65;;;4.57;;
53879;SDS011;39791;53.184;5.486;2023-02-28T15:21:46;6.30;;;4.25;;
53879;SDS011;39791;53.184;5.486;2023-02-28T15:24:56;8.85;;;4.45;;
53879;SDS011;39791;53.184;5.486;2023-02-28T15:27:12;7.47;;;4.50;;
53879;SDS011;39791;53.184;5.486;2023-02-28T15:29:48;9.93;;;4.65;;
53879;SDS011;39791;53.184;5.486;2023-02-28T15:34:50;8.52;;;4.05;;
53879;SDS011;39791;53.184;5.486;2023-02-28T15:46:06;9.13;;;4.50;;
53879;SDS011;39791;53.184;5.486;2023-02-28T15:48:18;5.82;;;4.50;;
53879;SDS011;39791;53.184;5.486;2023-02-28T15:51:05;7.03;;;4.28;;
53879;SDS011;39791;53.184;5.486;2023-02-28T15:53:51;8.00;;;4.70;;
53879;SDS011;39791;53.184;5.486;2023-02-28T15:56:25;7.55;;;5.30;;
53879;SDS011;39791;53.184;5.486;2023-02-28T15:58:53;4.75;;;4.07;;
53879;SDS011;39791;53.184;5.486;2023-02-28T16:01:24;10.13;;;5.10;;
53879;SDS011;39791;53.184;5.486;2023-02-28T16:03:56;7.75;;;4.47;;
53879;SDS011;39791;53.184;5.486;2023-02-28T16:06:37;7.97;;;4.43;;
53879;SDS011;39791;53.184;5.486;2023-02-28T16:09:03;8.30;;;4.97;;
53879;SDS011;39791;53.184;5.486;2023-02-28T16:11:33;10.07;;;4.70;;
53879;SDS011;39791;53.184;5.486;2023-02-28T16:14:01;8.10;;;4.95;;
53879;SDS011;39791;53.184;5.486;2023-02-28T16:16:28;8.48;;;4.70;;
53879;SDS011;39791;53.184;5.486;2023-02-28T16:18:53;7.25;;;4.72;;
53879;SDS011;39791;53.184;5.486;2023-02-28T16:21:19;8.38;;;5.20;;
53879;SDS011;39791;53.184;5.486;2023-02-28T16:23:45;7.00;;;4.80;;
53879;SDS011;39791;53.184;5.486;2023-02-28T16:26:17;10.43;;;5.13;;
53879;SDS011;39791;53.184;5.486;2023-02-28T16:28:46;7.25;;;4.90;;
53879;SDS011;39791;53.184;5.486;2023-02-28T16:31:12;7.45;;;4.90;;
53879;SDS011;39791;53.184;5.486;2023-02-28T16:33:41;12.07;;;5.68;;
53879;SDS011;39791;53.184;5.486;2023-02-28T16:36:19;8.45;;;5.63;;
53879;SDS011;39791;53.184;5.486;2023-02-28T16:38:49;9.98;;;5.10;;
53879;SDS011;39791;53.184;5.486;2023-02-28T16:41:19;10.57;;;5.65;;
53879;SDS011;39791;53.184;5.486;2023-02-28T16:43:48;7.45;;;4.95;;
53879;SDS011;39791;53.184;5.486;2023-02-28T16:46:16;10.77;;;5.47;;
53879;SDS011;39791;53.184;5.486;2023-02-28T16:48:43;7.82;;;5.88;;
53879;SDS011;39791;53.184;5.486;2023-02-28T16:51:13;6.93;;;5.22;;
53879;SDS011;39791;53.184;5.486;2023-02-28T16:53:40;9.77;;;5.95;;
53879;SDS011;39791;53.184;5.486;2023-02-28T16:56:06;9.95;;;5.80;;
53879;SDS011;39791;53.184;5.486;2023-02-28T16:58:38;8.02;;;6.05;;
53879;SDS011;39791;53.184;5.486;2023-02-28T17:01:04;8.65;;;6.18;;
53879;SDS011;39791;53.184;5.486;2023-02-28T17:03:30;9.65;;;5.68;;
53879;SDS011;39791;53.184;5.486;2023-02-28T17:05:55;10.95;;;5.95;;
53879;SDS011;39791;53.184;5.486;2023-02-28T17:08:21;11.52;;;5.45;;
53879;SDS011;39791;53.184;5.486;2023-02-28T17:10:46;9.68;;;6.15;;
53879;SDS011;39791;53.184;5.486;2023-02-28T17:13:12;8.52;;;5.65;;
53879;SDS011;39791;53.184;5.486;2023-02-28T17:15:38;14.02;;;5.93;;
53879;SDS011;39791;53.184;5.486;2023-02-28T17:18:04;7.43;;;6.15;;
53879;SDS011;39791;53.184;5.486;2023-02-28T17:20:30;9.48;;;6.70;;
53879;SDS011;39791;53.184;5.486;2023-02-28T17:22:56;10.02;;;6.88;;
53879;SDS011;39791;53.184;5.486;2023-02-28T17:25:23;10.55;;;6.80;;
53879;SDS011;39791;53.184;5.486;2023-02-28T17:27:49;11.40;;;6.90;;
53879;SDS011;39791;53.184;5.486;2023-02-28T17:30:20;8.88;;;6.53;;
53879;SDS011;39791;53.184;5.486;2023-02-28T17:32:49;11.30;;;6.53;;
53879;SDS011;39791;53.184;5.486;2023-02-28T17:35:14;9.73;;;6.10;;
53879;SDS011;39791;53.184;5.486;2023-02-28T17:37:40;9.05;;;6.63;;